createdAt,value
2022-08-21T00:00:04.546Z,19.00
2022-08-21T00:03:07.836Z,19.00
2022-08-21T00:06:00.043Z,18.90
2022-08-21T00:08:53.235Z,18.90
2022-08-21T00:11:45.497Z,19.00
2022-08-21T00:14:38.125Z,19.00
2022-08-21T00:17:30.333Z,19.00
2022-08-21T00:20:24.428Z,19.00
2022-08-21T00:23:16.740Z,19.00
2022-08-21T00:26:09.294Z,19.00
2022-08-21T00:29:01.647Z,19.10
2022-08-21T00:31:54.427Z,19.10
2022-08-21T00:34:46.603Z,19.10
2022-08-21T00:37:39.870Z,19.00
2022-08-21T00:40:40.903Z,19.00
2022-08-21T00:43:35.019Z,18.90
2022-08-21T00:46:28.286Z,18.80
2022-08-21T00:49:21.017Z,18.80
2022-08-21T00:52:25.139Z,18.70
2022-08-21T00:55:17.749Z,18.70
2022-08-21T00:58:12.607Z,18.70
2022-08-21T01:01:08.704Z,18.70
2022-08-21T01:04:01.253Z,18.70
2022-08-21T01:06:53.802Z,18.70
2022-08-21T01:09:48.723Z,18.70
2022-08-21T01:12:42.284Z,18.80
2022-08-21T01:15:37.570Z,18.80
2022-08-21T01:18:30.125Z,18.70
2022-08-21T01:21:28.054Z,18.70
2022-08-21T01:24:22.297Z,18.70
2022-08-21T01:27:14.553Z,18.80
2022-08-21T01:30:20.715Z,18.70
2022-08-21T01:33:12.933Z,18.70
2022-08-21T01:36:05.535Z,18.60
2022-08-21T01:38:58.157Z,18.60
2022-08-21T01:41:50.370Z,18.60
2022-08-21T01:44:43.574Z,18.60
2022-08-21T01:47:36.568Z,18.50
2022-08-21T01:50:28.998Z,18.60
2022-08-21T01:53:21.185Z,18.50
2022-08-21T01:56:20.907Z,18.50
2022-08-21T01:59:13.389Z,18.50
2022-08-21T02:02:05.814Z,18.50
2022-08-21T02:04:58.051Z,18.50
2022-08-21T02:07:52.961Z,18.50
2022-08-21T02:10:48.916Z,18.40
2022-08-21T02:13:41.590Z,18.40
2022-08-21T02:16:34.400Z,18.50
2022-08-21T02:19:26.688Z,18.50
2022-08-21T02:22:30.072Z,18.40
2022-08-21T02:25:24.376Z,18.40
2022-08-21T02:28:17.318Z,18.50
2022-08-21T02:31:09.880Z,18.40
2022-08-21T02:34:02.201Z,18.40
2022-08-21T02:36:59.516Z,18.40
2022-08-21T02:39:52.218Z,18.50
2022-08-21T02:42:44.871Z,18.40
2022-08-21T02:45:38.351Z,18.50
2022-08-21T02:48:33.504Z,18.50
2022-08-21T02:51:26.948Z,18.50
2022-08-21T02:54:19.252Z,18.50
2022-08-21T02:57:11.488Z,18.50
2022-08-21T03:00:06.312Z,18.50
2022-08-21T03:02:59.174Z,18.50
2022-08-21T03:05:52.058Z,18.50
2022-08-21T03:08:46.053Z,18.50
2022-08-21T03:11:38.261Z,18.60
2022-08-21T03:14:30.524Z,18.50
2022-08-21T03:17:29.711Z,18.40
2022-08-21T03:20:25.158Z,18.40
2022-08-21T03:23:19.624Z,18.50
2022-08-21T03:26:12.472Z,18.40
2022-08-21T03:29:05.005Z,18.50
2022-08-21T03:31:57.251Z,18.50
2022-08-21T03:34:49.595Z,18.40
2022-08-21T03:37:42.116Z,18.50
2022-08-21T03:40:34.356Z,18.50
2022-08-21T03:43:26.945Z,18.50
2022-08-21T03:46:23.285Z,18.40
2022-08-21T03:49:16.764Z,18.50
2022-08-21T03:52:09.912Z,18.50
2022-08-21T03:55:02.093Z,18.50
2022-08-21T03:57:54.783Z,18.40
2022-08-21T04:00:49.828Z,18.40
2022-08-21T04:03:42.282Z,18.40
2022-08-21T04:06:37.853Z,18.40
2022-08-21T04:09:31.203Z,18.40
2022-08-21T04:12:23.849Z,18.40
2022-08-21T04:15:16.084Z,18.40
2022-08-21T04:18:09.605Z,18.30
2022-08-21T04:21:04.082Z,18.40
2022-08-21T04:23:57.958Z,18.50
2022-08-21T04:26:50.146Z,18.40
2022-08-21T04:29:42.337Z,18.40
2022-08-21T04:32:35.967Z,18.40
2022-08-21T04:35:29.159Z,18.50
2022-08-21T04:38:21.736Z,18.50
2022-08-21T04:41:13.952Z,18.50
2022-08-21T04:44:07.655Z,18.50
2022-08-21T04:46:59.852Z,18.50
2022-08-21T04:49:52.272Z,18.50
2022-08-21T04:52:44.783Z,18.50
2022-08-21T04:55:38.813Z,18.40
2022-08-21T04:58:34.117Z,18.50
2022-08-21T05:01:29.887Z,18.50
2022-08-21T05:04:25.802Z,18.50
2022-08-21T05:07:42.323Z,18.50
2022-08-21T05:10:35.423Z,18.50
2022-08-21T05:13:28.116Z,18.60
2022-08-21T05:16:30.189Z,18.70
2022-08-21T05:19:30.828Z,18.60
2022-08-21T05:22:25.358Z,18.70
2022-08-21T05:25:18.123Z,18.70
2022-08-21T05:28:14.537Z,18.70
2022-08-21T05:31:06.799Z,18.70
2022-08-21T05:33:59.021Z,18.70
2022-08-21T05:36:51.705Z,18.70
2022-08-21T05:40:20.096Z,18.70
2022-08-21T05:42:57.308Z,18.60
2022-08-21T05:45:49.780Z,18.60
2022-08-21T05:48:42.252Z,18.70
2022-08-21T05:51:34.522Z,18.80
2022-08-21T05:54:26.844Z,18.90
2022-08-21T05:57:19.085Z,18.90
2022-08-21T06:00:13.303Z,19.00
2022-08-21T06:03:05.542Z,19.00
2022-08-21T06:05:58.004Z,19.00
2022-08-21T06:08:50.229Z,19.10
2022-08-21T06:11:42.434Z,19.10
2022-08-21T06:14:34.698Z,19.20
2022-08-21T06:17:26.921Z,19.30
2022-08-21T06:20:19.161Z,19.20
2022-08-21T06:23:11.340Z,19.30
2022-08-21T06:26:05.696Z,19.30
2022-08-21T06:28:58.452Z,19.40
2022-08-21T06:31:52.377Z,19.30
2022-08-21T06:34:44.760Z,19.30
2022-08-21T06:37:36.979Z,19.40
2022-08-21T06:40:30.307Z,19.40
2022-08-21T06:43:22.716Z,19.40
2022-08-21T06:46:31.002Z,19.40
2022-08-21T06:49:23.202Z,19.50
2022-08-21T06:52:15.661Z,19.50
2022-08-21T06:55:11.503Z,19.60
2022-08-21T06:58:06.320Z,19.70
2022-08-21T07:01:01.058Z,19.70
2022-08-21T07:03:53.919Z,19.90
2022-08-21T07:06:46.273Z,20.10
2022-08-21T07:09:38.466Z,20.10
2022-08-21T07:12:31.340Z,20.10
2022-08-21T07:15:23.518Z,20.00
2022-08-21T07:18:16.415Z,20.00
2022-08-21T07:21:09.629Z,20.00
2022-08-21T07:24:04.532Z,20.10
2022-08-21T07:26:56.770Z,20.10
2022-08-21T07:29:48.968Z,20.10
2022-08-21T07:32:41.352Z,20.00
2022-08-21T07:35:34.275Z,20.00
2022-08-21T07:38:26.947Z,20.10
2022-08-21T07:41:24.629Z,20.10
2022-08-21T07:44:16.814Z,20.30
2022-08-21T07:47:09.015Z,20.40
2022-08-21T07:50:01.181Z,20.60
2022-08-21T07:52:54.221Z,20.60
2022-08-21T07:55:46.433Z,20.80
2022-08-21T07:58:38.860Z,21.00
2022-08-21T08:01:31.662Z,21.10
2022-08-21T08:04:26.455Z,21.20
2022-08-21T08:07:18.969Z,21.60
2022-08-21T08:10:11.886Z,21.80
2022-08-21T08:13:07.215Z,21.90
2022-08-21T08:16:02.892Z,22.10
2022-08-21T08:18:56.542Z,22.10
2022-08-21T08:21:48.703Z,22.00
2022-08-21T08:24:40.944Z,21.90
2022-08-21T08:27:33.330Z,22.10
2022-08-21T08:30:28.002Z,22.30
2022-08-21T08:33:23.491Z,22.00
2022-08-21T08:36:20.062Z,21.80
2022-08-21T08:39:12.266Z,21.70
2022-08-21T08:42:34.532Z,21.80
2022-08-21T08:45:27.589Z,21.80
2022-08-21T08:48:35.688Z,22.00
2022-08-21T08:52:04.561Z,22.50
2022-08-21T08:55:03.056Z,22.80
2022-08-21T08:57:56.486Z,23.10
2022-08-21T09:00:51.757Z,23.00
2022-08-21T09:03:45.339Z,23.00
2022-08-21T09:06:46.277Z,23.00
2022-08-21T09:10:06.189Z,22.80
2022-08-21T09:13:23.199Z,22.70
2022-08-21T09:16:51.254Z,22.70
2022-08-21T09:20:17.597Z,22.50
2022-08-21T09:23:22.158Z,22.40
2022-08-21T09:26:18.112Z,22.50
2022-08-21T09:29:13.208Z,22.50
2022-08-21T09:32:21.053Z,22.70
2022-08-21T09:35:15.456Z,22.80
2022-08-21T09:38:09.041Z,23.20
2022-08-21T09:41:07.033Z,23.40
2022-08-21T09:43:59.409Z,23.50
2022-08-21T09:46:53.543Z,23.80
2022-08-21T09:49:48.302Z,24.00
2022-08-21T09:52:54.549Z,24.00
2022-08-21T09:56:37.617Z,24.00
2022-08-21T09:59:37.161Z,23.90
2022-08-21T10:02:35.936Z,23.90
2022-08-21T10:05:29.297Z,23.60
2022-08-21T10:08:23.987Z,23.60
2022-08-21T10:11:18.114Z,23.60
2022-08-21T10:14:13.289Z,23.60
2022-08-21T10:17:22.635Z,23.70
2022-08-21T10:20:29.539Z,24.10
2022-08-21T10:23:38.695Z,24.10
2022-08-21T10:26:57.721Z,24.00
2022-08-21T10:29:56.779Z,24.00
2022-08-21T10:33:27.363Z,24.10
2022-08-21T10:36:27.440Z,24.10
2022-08-21T10:39:35.649Z,24.30
2022-08-21T10:43:00.626Z,24.30
2022-08-21T10:46:17.444Z,24.60
2022-08-21T10:49:15.307Z,24.60
2022-08-21T10:52:25.224Z,24.60
2022-08-21T10:55:26.712Z,24.80
2022-08-21T10:58:44.816Z,24.90
2022-08-21T11:01:53.699Z,24.70
2022-08-21T11:05:08.006Z,24.50
2022-08-21T11:08:21.346Z,24.70
2022-08-21T11:11:35.917Z,24.70
2022-08-21T11:14:55.404Z,24.60
2022-08-21T11:17:58.927Z,24.50
2022-08-21T11:21:05.986Z,24.50
2022-08-21T11:24:32.914Z,24.50
2022-08-21T11:27:27.645Z,24.40
2022-08-21T11:30:20.132Z,24.50
2022-08-21T11:33:47.245Z,24.40
2022-08-21T11:36:48.327Z,24.60
2022-08-21T11:39:53.623Z,24.60
2022-08-21T11:42:54.097Z,24.50
2022-08-21T11:45:48.816Z,24.60
2022-08-21T11:48:54.385Z,24.50
2022-08-21T11:52:09.031Z,24.50
2022-08-21T11:55:09.579Z,24.40
2022-08-21T11:58:12.675Z,24.50
2022-08-21T12:01:36.712Z,24.70
2022-08-21T12:04:30.333Z,24.90
2022-08-21T12:07:35.707Z,25.00
2022-08-21T12:10:48.161Z,25.10
2022-08-21T12:13:53.807Z,25.10
2022-08-21T12:16:49.943Z,25.10
2022-08-21T12:19:42.147Z,25.00
2022-08-21T12:22:41.795Z,24.90
2022-08-21T12:25:49.009Z,24.90
2022-08-21T12:28:41.699Z,25.10
2022-08-21T12:31:33.915Z,25.20
2022-08-21T12:34:53.387Z,25.30
2022-08-21T12:38:07.682Z,25.30
2022-08-21T12:41:10.828Z,25.40
2022-08-21T12:44:12.690Z,25.40
2022-08-21T12:47:13.573Z,25.20
2022-08-21T12:50:16.075Z,25.10
2022-08-21T12:53:24.910Z,25.10
2022-08-21T12:56:20.919Z,25.30
2022-08-21T12:59:14.611Z,25.20
2022-08-21T13:02:20.847Z,25.10
2022-08-21T13:05:17.152Z,24.90
2022-08-21T13:08:12.263Z,24.80
2022-08-21T13:11:09.208Z,24.70
2022-08-21T13:14:14.970Z,24.40
2022-08-21T13:17:12.588Z,24.10
2022-08-21T13:20:10.820Z,23.90
2022-08-21T13:23:27.321Z,23.80
2022-08-21T13:26:22.540Z,23.80
2022-08-21T13:29:18.315Z,23.70
2022-08-21T13:32:24.968Z,23.60
2022-08-21T13:35:27.687Z,23.60
2022-08-21T13:38:30.669Z,23.60
2022-08-21T13:41:28.669Z,23.50
2022-08-21T13:44:27.376Z,23.20
2022-08-21T13:47:19.704Z,23.10
2022-08-21T13:50:14.811Z,23.00
2022-08-21T13:53:20.102Z,22.80
2022-08-21T13:56:42.746Z,23.00
2022-08-21T13:59:36.849Z,23.00
2022-08-21T14:02:29.055Z,23.00
2022-08-21T14:05:29.933Z,23.10
2022-08-21T14:08:35.753Z,23.20
2022-08-21T14:11:33.841Z,23.20
2022-08-21T14:14:36.283Z,23.20
2022-08-21T14:17:33.476Z,23.10
2022-08-21T14:20:33.608Z,23.00
2022-08-21T14:23:27.108Z,22.90
2022-08-21T14:26:19.415Z,22.70
2022-08-21T14:29:14.115Z,22.50
2022-08-21T14:32:24.563Z,22.50
2022-08-21T14:35:18.787Z,22.60
2022-08-21T14:38:19.325Z,22.70
2022-08-21T14:41:24.680Z,22.80
2022-08-21T14:44:19.168Z,22.90
2022-08-21T14:47:11.733Z,22.80
2022-08-21T14:50:04.442Z,22.80
2022-08-21T14:52:56.782Z,22.70
2022-08-21T14:56:10.989Z,22.80
2022-08-21T14:59:09.935Z,22.80
2022-08-21T15:02:05.075Z,22.70
2022-08-21T15:04:57.920Z,22.70
2022-08-21T15:07:50.102Z,22.80
2022-08-21T15:11:08.255Z,22.70
2022-08-21T15:13:59.095Z,22.60
2022-08-21T15:16:51.996Z,22.70
2022-08-21T15:19:44.189Z,22.60
2022-08-21T15:22:36.441Z,22.60
2022-08-21T15:25:29.403Z,22.50
2022-08-21T15:28:22.529Z,22.60
2022-08-21T15:31:14.788Z,22.50
2022-08-21T15:34:07.019Z,22.50
2022-08-21T15:36:59.579Z,22.50
2022-08-21T15:39:54.213Z,22.50
2022-08-21T15:42:47.646Z,22.40
2022-08-21T15:45:39.804Z,22.40
2022-08-21T15:48:32.115Z,22.40
2022-08-21T15:51:24.331Z,22.30
2022-08-21T15:54:16.583Z,22.20
2022-08-21T15:57:14.898Z,22.00
2022-08-21T16:00:25.563Z,22.10
2022-08-21T16:03:20.994Z,22.10
2022-08-21T16:06:13.184Z,22.00
2022-08-21T16:09:05.614Z,22.00
2022-08-21T16:11:59.631Z,22.00
2022-08-21T16:14:53.188Z,22.00
2022-08-21T16:17:51.021Z,22.00
2022-08-21T16:20:43.212Z,22.00
2022-08-21T16:23:36.630Z,21.90
2022-08-21T16:26:30.098Z,21.80
2022-08-21T16:29:23.991Z,21.70
2022-08-21T16:32:16.972Z,21.70
2022-08-21T16:35:13.624Z,21.60
2022-08-21T16:38:05.840Z,21.60
2022-08-21T16:40:59.150Z,21.60
2022-08-21T16:43:52.319Z,21.50
2022-08-21T16:46:45.094Z,21.40
2022-08-21T16:49:37.683Z,21.40
2022-08-21T16:52:29.928Z,21.30
2022-08-21T16:55:22.259Z,21.30
2022-08-21T16:58:20.913Z,21.20
2022-08-21T17:01:16.349Z,21.20
2022-08-21T17:04:08.733Z,21.10
2022-08-21T17:07:00.925Z,21.00
2022-08-21T17:09:53.181Z,21.00
2022-08-21T17:12:55.048Z,21.00
2022-08-21T17:15:47.280Z,21.00
2022-08-21T17:18:39.547Z,20.90
2022-08-21T17:21:32.056Z,20.90
2022-08-21T17:24:24.232Z,20.80
2022-08-21T17:27:17.877Z,20.70
2022-08-21T17:30:12.049Z,20.60
2022-08-21T17:33:04.410Z,20.60
2022-08-21T17:35:57.749Z,20.60
2022-08-21T17:38:50.776Z,20.50
2022-08-21T17:41:43.344Z,20.40
2022-08-21T17:44:38.745Z,20.30
2022-08-21T17:47:31.013Z,20.30
2022-08-21T17:50:23.387Z,20.30
2022-08-21T17:53:15.851Z,20.40
2022-08-21T17:56:08.276Z,20.40
2022-08-21T17:59:00.663Z,20.40
2022-08-21T18:01:54.525Z,20.40
2022-08-21T18:04:47.163Z,20.40
2022-08-21T18:07:42.787Z,20.30
2022-08-21T18:10:35.330Z,20.30
2022-08-21T18:13:30.771Z,20.30
2022-08-21T18:16:23.340Z,20.20
2022-08-21T18:19:17.457Z,20.20
2022-08-21T18:22:10.810Z,20.20
2022-08-21T18:25:04.971Z,20.20
2022-08-21T18:27:57.453Z,20.10
2022-08-21T18:30:50.566Z,20.10
2022-08-21T18:33:58.440Z,20.00
2022-08-21T18:36:52.010Z,20.00
2022-08-21T18:39:44.929Z,19.90
2022-08-21T18:42:41.350Z,20.00
2022-08-21T18:45:38.017Z,19.90
2022-08-21T18:48:30.372Z,19.90
2022-08-21T18:51:22.628Z,19.90
2022-08-21T18:54:15.672Z,19.90
2022-08-21T18:57:11.158Z,19.90
2022-08-21T19:00:11.669Z,19.80
2022-08-21T19:03:06.070Z,19.80
2022-08-21T19:06:00.233Z,19.80
2022-08-21T19:08:52.450Z,19.70
2022-08-21T19:11:44.752Z,19.70
2022-08-21T19:14:37.055Z,19.60
2022-08-21T19:17:29.658Z,19.60
2022-08-21T19:20:27.301Z,19.60
2022-08-21T19:23:20.472Z,19.60
2022-08-21T19:26:23.890Z,19.50
2022-08-21T19:29:19.406Z,19.50
2022-08-21T19:32:12.233Z,19.40
2022-08-21T19:35:04.735Z,19.40
2022-08-21T19:37:56.964Z,19.40
2022-08-21T19:40:49.413Z,19.30
2022-08-21T19:43:54.660Z,19.30
2022-08-21T19:46:49.941Z,19.30
2022-08-21T19:49:46.973Z,19.30
2022-08-21T19:52:39.333Z,19.30
2022-08-21T19:55:45.900Z,19.30
2022-08-21T19:58:47.144Z,19.20
2022-08-21T20:01:42.472Z,19.10
2022-08-21T20:04:34.839Z,19.10
2022-08-21T20:07:27.156Z,19.10
2022-08-21T20:10:19.423Z,19.00
2022-08-21T20:13:12.242Z,19.00
2022-08-21T20:16:09.463Z,19.00
2022-08-21T20:19:04.676Z,19.00
2022-08-21T20:21:58.536Z,18.90
2022-08-21T20:24:50.712Z,18.90
2022-08-21T20:27:44.168Z,18.80
2022-08-21T20:30:46.788Z,18.70
2022-08-21T20:33:40.478Z,18.70
2022-08-21T20:36:33.060Z,18.70
2022-08-21T20:39:26.596Z,18.70
2022-08-21T20:42:19.311Z,18.70
2022-08-21T20:45:18.568Z,18.80
2022-08-21T20:48:18.285Z,18.80
2022-08-21T20:51:28.032Z,18.70
2022-08-21T20:54:35.244Z,18.70
2022-08-21T20:57:55.163Z,18.70
2022-08-21T21:00:49.635Z,18.70
2022-08-21T21:03:46.837Z,18.70
2022-08-21T21:06:40.467Z,18.70
2022-08-21T21:09:44.389Z,18.80
2022-08-21T21:12:42.619Z,18.80
2022-08-21T21:15:36.754Z,18.70
2022-08-21T21:18:41.474Z,18.60
2022-08-21T21:21:39.064Z,18.60
2022-08-21T21:24:52.581Z,18.60
2022-08-21T21:27:54.400Z,18.60
2022-08-21T21:30:51.993Z,18.60
2022-08-21T21:33:50.210Z,18.60
2022-08-21T21:37:11.167Z,18.50
2022-08-21T21:40:25.325Z,18.50
2022-08-21T21:43:54.988Z,18.40
2022-08-21T21:47:06.062Z,18.30
2022-08-21T21:50:28.212Z,18.30
2022-08-21T21:53:38.797Z,18.30
2022-08-21T21:56:56.300Z,18.20
2022-08-21T21:59:57.547Z,18.30
2022-08-21T22:02:58.657Z,18.20
2022-08-21T22:06:04.589Z,18.20
2022-08-21T22:09:31.805Z,18.20
2022-08-21T22:12:53.719Z,18.10
2022-08-21T22:15:46.072Z,18.10
2022-08-21T22:18:48.772Z,18.10
2022-08-21T22:22:01.675Z,18.00
2022-08-21T22:25:25.577Z,18.10
2022-08-21T22:28:25.659Z,18.10
2022-08-21T22:31:27.459Z,17.90
2022-08-21T22:34:20.176Z,17.90
2022-08-21T22:37:14.920Z,17.90
2022-08-21T22:40:12.698Z,17.90
2022-08-21T22:43:16.341Z,17.90
2022-08-21T22:46:10.632Z,17.90
2022-08-21T22:49:30.197Z,17.90
2022-08-21T22:52:34.365Z,17.90
2022-08-21T22:55:52.448Z,18.00
2022-08-21T22:58:57.663Z,18.00
2022-08-21T23:02:16.571Z,18.10
2022-08-21T23:05:26.189Z,18.10
2022-08-21T23:08:24.350Z,18.10
2022-08-21T23:11:21.008Z,18.10
2022-08-21T23:14:16.563Z,18.10
2022-08-21T23:17:15.961Z,18.10
2022-08-21T23:20:20.727Z,18.10
2022-08-21T23:23:17.848Z,17.90
2022-08-21T23:26:41.669Z,17.90
2022-08-21T23:29:49.871Z,17.80
2022-08-21T23:33:11.576Z,17.80
2022-08-21T23:36:25.732Z,17.80
2022-08-21T23:39:24.089Z,17.80
2022-08-21T23:42:16.830Z,17.80
2022-08-21T23:45:33.187Z,17.80
2022-08-21T23:48:35.305Z,17.80
2022-08-21T23:52:00.961Z,17.70
2022-08-21T23:55:26.810Z,17.70
2022-08-21T23:58:45.121Z,17.60
